sensor_id;sensor_type;location;lat;lon;timestamp;temperature;humidity
37754;DHT22;23596;52.520;13.464;2022-12-07T00:03:32;3.20;99.90
37754;DHT22;23596;52.520;13.464;2022-12-07T00:05:59;3.10;99.90
37754;DHT22;23596;52.520;13.464;2022-12-07T00:08:25;3.10;99.90
37754;DHT22;23596;52.520;13.464;2022-12-07T00:10:50;3.20;99.90
37754;DHT22;23596;52.520;13.464;2022-12-07T00:13:16;3.70;99.90
37754;DHT22;23596;52.520;13.464;2022-12-07T00:15:41;3.10;99.90
37754;DHT22;23596;52.520;13.464;2022-12-07T00:18:07;3.20;99.90
37754;DHT22;23596;52.520;13.464;2022-12-07T00:20:33;4.20;99.90
37754;DHT22;23596;52.520;13.464;2022-12-07T00:22:59;3.20;99.90
37754;DHT22;23596;52.520;13.464;2022-12-07T00:25:25;3.20;99.90
37754;DHT22;23596;52.520;13.464;2022-12-07T00:27:52;3.20;99.90
37754;DHT22;23596;52.520;13.464;2022-12-07T00:30:18;3.70;99.90
37754;DHT22;23596;52.520;13.464;2022-12-07T00:32:43;3.90;99.90
37754;DHT22;23596;52.520;13.464;2022-12-07T00:35:09;3.10;99.90
37754;DHT22;23596;52.520;13.464;2022-12-07T00:37:34;3.10;99.90
37754;DHT22;23596;52.520;13.464;2022-12-07T00:40:00;3.10;99.90
37754;DHT22;23596;52.520;13.464;2022-12-07T00:42:25;3.10;99.90
37754;DHT22;23596;52.520;13.464;2022-12-07T00:44:51;3.10;99.90
37754;DHT22;23596;52.520;13.464;2022-12-07T00:47:17;3.10;99.90
37754;DHT22;23596;52.520;13.464;2022-12-07T00:49:42;3.00;99.90
37754;DHT22;23596;52.520;13.464;2022-12-07T00:52:08;3.00;99.90
37754;DHT22;23596;52.520;13.464;2022-12-07T00:54:33;3.00;99.90
37754;DHT22;23596;52.520;13.464;2022-12-07T00:56:59;3.20;99.90
37754;DHT22;23596;52.520;13.464;2022-12-07T00:59:24;3.90;99.90
37754;DHT22;23596;52.520;13.464;2022-12-07T01:01:50;3.80;99.90
37754;DHT22;23596;52.520;13.464;2022-12-07T01:04:16;3.00;99.90
37754;DHT22;23596;52.520;13.464;2022-12-07T01:06:41;3.90;99.90
37754;DHT22;23596;52.520;13.464;2022-12-07T01:09:07;3.30;99.90
37754;DHT22;23596;52.520;13.464;2022-12-07T01:11:33;3.00;99.90
37754;DHT22;23596;52.520;13.464;2022-12-07T01:13:59;3.00;99.90
37754;DHT22;23596;52.520;13.464;2022-12-07T01:16:27;3.00;99.90
37754;DHT22;23596;52.520;13.464;2022-12-07T01:18:54;2.90;99.90
37754;DHT22;23596;52.520;13.464;2022-12-07T01:21:26;2.90;99.90
37754;DHT22;23596;52.520;13.464;2022-12-07T01:23:52;2.80;99.90
37754;DHT22;23596;52.520;13.464;2022-12-07T01:26:21;2.80;99.90
37754;DHT22;23596;52.520;13.464;2022-12-07T01:28:47;2.80;99.90
37754;DHT22;23596;52.520;13.464;2022-12-07T01:31:15;2.80;99.90
37754;DHT22;23596;52.520;13.464;2022-12-07T01:33:43;2.80;99.90
37754;DHT22;23596;52.520;13.464;2022-12-07T01:36:18;2.80;99.90
37754;DHT22;23596;52.520;13.464;2022-12-07T01:38:45;2.80;99.90
37754;DHT22;23596;52.520;13.464;2022-12-07T01:41:11;2.90;99.90
37754;DHT22;23596;52.520;13.464;2022-12-07T01:44:06;2.90;99.90
37754;DHT22;23596;52.520;13.464;2022-12-07T01:46:22;2.90;99.90
37754;DHT22;23596;52.520;13.464;2022-12-07T01:48:48;2.90;99.90
37754;DHT22;23596;52.520;13.464;2022-12-07T01:51:14;2.90;99.90
37754;DHT22;23596;52.520;13.464;2022-12-07T01:53:43;2.90;99.90
37754;DHT22;23596;52.520;13.464;2022-12-07T01:56:12;2.90;99.90
37754;DHT22;23596;52.520;13.464;2022-12-07T01:58:42;2.90;99.90
37754;DHT22;23596;52.520;13.464;2022-12-07T02:01:08;2.90;99.90
37754;DHT22;23596;52.520;13.464;2022-12-07T02:03:39;3.60;99.90
37754;DHT22;23596;52.520;13.464;2022-12-07T02:06:06;2.90;99.90
37754;DHT22;23596;52.520;13.464;2022-12-07T02:08:34;2.90;99.90
37754;DHT22;23596;52.520;13.464;2022-12-07T02:11:02;2.90;99.90
37754;DHT22;23596;52.520;13.464;2022-12-07T02:13:31;2.90;99.90
37754;DHT22;23596;52.520;13.464;2022-12-07T02:23:47;2.90;99.90
37754;DHT22;23596;52.520;13.464;2022-12-07T02:29:53;2.80;99.90
37754;DHT22;23596;52.520;13.464;2022-12-07T02:34:50;2.90;99.90
37754;DHT22;23596;52.520;13.464;2022-12-07T02:40:22;2.90;99.90
37754;DHT22;23596;52.520;13.464;2022-12-07T02:42:58;2.90;99.90
37754;DHT22;23596;52.520;13.464;2022-12-07T02:45:27;2.80;99.90
37754;DHT22;23596;52.520;13.464;2022-12-07T02:47:56;2.80;99.90
37754;DHT22;23596;52.520;13.464;2022-12-07T02:50:24;2.80;99.90
37754;DHT22;23596;52.520;13.464;2022-12-07T02:52:50;2.80;99.90
37754;DHT22;23596;52.520;13.464;2022-12-07T02:55:19;2.80;99.90
37754;DHT22;23596;52.520;13.464;2022-12-07T02:58:17;2.70;99.90
37754;DHT22;23596;52.520;13.464;2022-12-07T03:03:50;2.60;99.90
37754;DHT22;23596;52.520;13.464;2022-12-07T03:06:24;2.60;99.90
37754;DHT22;23596;52.520;13.464;2022-12-07T03:09:11;2.60;99.90
37754;DHT22;23596;52.520;13.464;2022-12-07T03:11:48;2.60;99.90
37754;DHT22;23596;52.520;13.464;2022-12-07T03:14:41;2.60;99.90
37754;DHT22;23596;52.520;13.464;2022-12-07T03:17:14;2.60;99.90
37754;DHT22;23596;52.520;13.464;2022-12-07T03:19:42;2.60;99.90
37754;DHT22;23596;52.520;13.464;2022-12-07T03:22:10;2.60;99.90
37754;DHT22;23596;52.520;13.464;2022-12-07T03:24:43;2.70;99.90
37754;DHT22;23596;52.520;13.464;2022-12-07T03:27:18;2.70;99.90
37754;DHT22;23596;52.520;13.464;2022-12-07T03:30:09;2.70;99.90
37754;DHT22;23596;52.520;13.464;2022-12-07T03:32:50;2.70;99.90
37754;DHT22;23596;52.520;13.464;2022-12-07T03:35:26;2.70;99.90
37754;DHT22;23596;52.520;13.464;2022-12-07T03:38:00;2.70;99.90
37754;DHT22;23596;52.520;13.464;2022-12-07T03:40:48;2.70;99.90
37754;DHT22;23596;52.520;13.464;2022-12-07T03:43:18;2.70;99.90
37754;DHT22;23596;52.520;13.464;2022-12-07T03:45:56;2.70;99.90
37754;DHT22;23596;52.520;13.464;2022-12-07T03:48:35;2.70;99.90
37754;DHT22;23596;52.520;13.464;2022-12-07T03:51:18;2.60;99.90
37754;DHT22;23596;52.520;13.464;2022-12-07T03:54:07;2.60;99.90
37754;DHT22;23596;52.520;13.464;2022-12-07T03:56:36;2.50;99.90
37754;DHT22;23596;52.520;13.464;2022-12-07T03:59:02;2.50;99.90
37754;DHT22;23596;52.520;13.464;2022-12-07T04:01:28;2.40;99.90
37754;DHT22;23596;52.520;13.464;2022-12-07T04:03:53;2.40;99.90
37754;DHT22;23596;52.520;13.464;2022-12-07T04:06:19;2.40;99.90
37754;DHT22;23596;52.520;13.464;2022-12-07T04:08:45;2.40;99.90
37754;DHT22;23596;52.520;13.464;2022-12-07T04:11:10;2.30;99.90
37754;DHT22;23596;52.520;13.464;2022-12-07T04:13:36;2.30;99.90
37754;DHT22;23596;52.520;13.464;2022-12-07T04:16:21;2.20;99.90
37754;DHT22;23596;52.520;13.464;2022-12-07T04:18:47;2.20;99.90
37754;DHT22;23596;52.520;13.464;2022-12-07T04:21:12;2.20;99.90
37754;DHT22;23596;52.520;13.464;2022-12-07T04:23:38;2.20;99.90
37754;DHT22;23596;52.520;13.464;2022-12-07T04:26:04;2.10;99.90
37754;DHT22;23596;52.520;13.464;2022-12-07T04:28:29;2.10;99.90
37754;DHT22;23596;52.520;13.464;2022-12-07T04:30:55;2.10;99.90
37754;DHT22;23596;52.520;13.464;2022-12-07T04:33:20;2.10;99.90
37754;DHT22;23596;52.520;13.464;2022-12-07T04:35:46;2.10;99.90
37754;DHT22;23596;52.520;13.464;2022-12-07T04:38:11;2.10;99.90
37754;DHT22;23596;52.520;13.464;2022-12-07T04:40:37;2.10;99.90
37754;DHT22;23596;52.520;13.464;2022-12-07T04:43:03;2.60;99.90
37754;DHT22;23596;52.520;13.464;2022-12-07T04:45:30;2.10;99.90
37754;DHT22;23596;52.520;13.464;2022-12-07T04:47:55;2.10;99.90
37754;DHT22;23596;52.520;13.464;2022-12-07T04:50:21;2.10;99.90
37754;DHT22;23596;52.520;13.464;2022-12-07T04:52:46;2.10;99.90
37754;DHT22;23596;52.520;13.464;2022-12-07T04:55:12;2.50;99.90
37754;DHT22;23596;52.520;13.464;2022-12-07T04:57:37;2.20;99.90
37754;DHT22;23596;52.520;13.464;2022-12-07T05:00:03;2.20;99.90
37754;DHT22;23596;52.520;13.464;2022-12-07T05:02:29;2.20;99.90
37754;DHT22;23596;52.520;13.464;2022-12-07T05:04:54;2.20;99.90
37754;DHT22;23596;52.520;13.464;2022-12-07T05:07:20;2.90;99.90
37754;DHT22;23596;52.520;13.464;2022-12-07T05:09:46;2.30;99.90
37754;DHT22;23596;52.520;13.464;2022-12-07T05:12:11;2.30;99.90
37754;DHT22;23596;52.520;13.464;2022-12-07T05:14:37;2.30;99.90
37754;DHT22;23596;52.520;13.464;2022-12-07T05:17:02;2.30;99.90
37754;DHT22;23596;52.520;13.464;2022-12-07T05:19:29;2.30;99.90
37754;DHT22;23596;52.520;13.464;2022-12-07T05:21:54;2.30;99.90
37754;DHT22;23596;52.520;13.464;2022-12-07T05:24:20;2.30;99.90
37754;DHT22;23596;52.520;13.464;2022-12-07T05:26:46;2.30;99.90
37754;DHT22;23596;52.520;13.464;2022-12-07T05:29:14;3.00;99.90
37754;DHT22;23596;52.520;13.464;2022-12-07T05:31:40;2.40;99.90
37754;DHT22;23596;52.520;13.464;2022-12-07T05:34:06;2.40;99.90
37754;DHT22;23596;52.520;13.464;2022-12-07T05:36:31;2.40;99.90
37754;DHT22;23596;52.520;13.464;2022-12-07T05:38:57;2.40;99.90
37754;DHT22;23596;52.520;13.464;2022-12-07T05:41:23;2.40;99.90
37754;DHT22;23596;52.520;13.464;2022-12-07T05:44:07;2.50;99.90
37754;DHT22;23596;52.520;13.464;2022-12-07T05:46:33;2.50;99.90
37754;DHT22;23596;52.520;13.464;2022-12-07T05:48:59;2.60;99.90
37754;DHT22;23596;52.520;13.464;2022-12-07T05:51:25;2.60;99.90
37754;DHT22;23596;52.520;13.464;2022-12-07T05:53:51;2.60;99.90
37754;DHT22;23596;52.520;13.464;2022-12-07T05:56:16;2.60;99.90
37754;DHT22;23596;52.520;13.464;2022-12-07T05:58:42;2.70;99.90
37754;DHT22;23596;52.520;13.464;2022-12-07T06:01:26;2.70;99.90
37754;DHT22;23596;52.520;13.464;2022-12-07T06:03:52;2.80;99.90
37754;DHT22;23596;52.520;13.464;2022-12-07T06:06:17;2.80;99.90
37754;DHT22;23596;52.520;13.464;2022-12-07T06:08:43;2.80;99.90
37754;DHT22;23596;52.520;13.464;2022-12-07T06:11:09;2.80;99.90
37754;DHT22;23596;52.520;13.464;2022-12-07T06:14:07;2.90;99.90
37754;DHT22;23596;52.520;13.464;2022-12-07T06:16:32;2.90;99.90
37754;DHT22;23596;52.520;13.464;2022-12-07T06:18:58;2.90;99.90
37754;DHT22;23596;52.520;13.464;2022-12-07T06:21:23;3.00;99.90
37754;DHT22;23596;52.520;13.464;2022-12-07T06:23:51;3.00;99.90
37754;DHT22;23596;52.520;13.464;2022-12-07T06:26:16;3.00;99.90
37754;DHT22;23596;52.520;13.464;2022-12-07T06:28:42;3.10;99.90
37754;DHT22;23596;52.520;13.464;2022-12-07T06:31:08;3.10;99.90
37754;DHT22;23596;52.520;13.464;2022-12-07T06:33:33;3.10;99.90
37754;DHT22;23596;52.520;13.464;2022-12-07T06:35:59;3.10;99.90
37754;DHT22;23596;52.520;13.464;2022-12-07T06:38:25;3.10;99.90
37754;DHT22;23596;52.520;13.464;2022-12-07T06:40:50;3.10;99.90
37754;DHT22;23596;52.520;13.464;2022-12-07T06:43:16;3.20;99.90
37754;DHT22;23596;52.520;13.464;2022-12-07T06:45:42;3.10;99.90
37754;DHT22;23596;52.520;13.464;2022-12-07T06:48:08;3.10;99.90
37754;DHT22;23596;52.520;13.464;2022-12-07T06:50:33;3.20;99.90
37754;DHT22;23596;52.520;13.464;2022-12-07T06:52:59;3.10;99.90
37754;DHT22;23596;52.520;13.464;2022-12-07T06:55:25;3.10;99.90
37754;DHT22;23596;52.520;13.464;2022-12-07T06:57:50;3.10;99.90
37754;DHT22;23596;52.520;13.464;2022-12-07T07:00:16;3.10;99.90
37754;DHT22;23596;52.520;13.464;2022-12-07T07:02:42;3.20;99.90
37754;DHT22;23596;52.520;13.464;2022-12-07T07:05:07;3.30;99.90
37754;DHT22;23596;52.520;13.464;2022-12-07T07:07:33;3.40;99.90
37754;DHT22;23596;52.520;13.464;2022-12-07T07:09:59;3.20;99.90
37754;DHT22;23596;52.520;13.464;2022-12-07T07:12:24;3.30;99.90
37754;DHT22;23596;52.520;13.464;2022-12-07T07:14:50;3.30;99.90
37754;DHT22;23596;52.520;13.464;2022-12-07T07:17:16;3.90;99.90
37754;DHT22;23596;52.520;13.464;2022-12-07T07:19:41;3.40;99.90
37754;DHT22;23596;52.520;13.464;2022-12-07T07:22:07;3.40;99.90
37754;DHT22;23596;52.520;13.464;2022-12-07T07:24:32;4.30;99.90
37754;DHT22;23596;52.520;13.464;2022-12-07T07:26:58;3.40;99.90
37754;DHT22;23596;52.520;13.464;2022-12-07T07:29:23;3.60;99.90
37754;DHT22;23596;52.520;13.464;2022-12-07T07:31:49;3.50;99.90
37754;DHT22;23596;52.520;13.464;2022-12-07T07:34:15;3.50;99.90
37754;DHT22;23596;52.520;13.464;2022-12-07T07:36:40;3.10;99.90
37754;DHT22;23596;52.520;13.464;2022-12-07T07:39:06;4.10;99.90
37754;DHT22;23596;52.520;13.464;2022-12-07T07:41:32;3.60;99.90
37754;DHT22;23596;52.520;13.464;2022-12-07T07:43:57;3.50;99.90
37754;DHT22;23596;52.520;13.464;2022-12-07T07:46:23;3.50;99.90
37754;DHT22;23596;52.520;13.464;2022-12-07T07:48:49;3.60;99.90
37754;DHT22;23596;52.520;13.464;2022-12-07T07:51:14;3.60;99.90
37754;DHT22;23596;52.520;13.464;2022-12-07T07:53:40;3.60;99.90
37754;DHT22;23596;52.520;13.464;2022-12-07T07:56:05;4.30;99.90
37754;DHT22;23596;52.520;13.464;2022-12-07T07:58:31;3.50;99.90
37754;DHT22;23596;52.520;13.464;2022-12-07T08:00:56;3.50;99.90
37754;DHT22;23596;52.520;13.464;2022-12-07T08:03:22;3.60;99.90
37754;DHT22;23596;52.520;13.464;2022-12-07T08:05:48;3.60;99.90
37754;DHT22;23596;52.520;13.464;2022-12-07T08:08:13;3.60;99.90
37754;DHT22;23596;52.520;13.464;2022-12-07T08:10:39;4.30;99.90
37754;DHT22;23596;52.520;13.464;2022-12-07T08:13:05;3.60;99.90
37754;DHT22;23596;52.520;13.464;2022-12-07T08:15:38;3.60;99.90
37754;DHT22;23596;52.520;13.464;2022-12-07T08:18:04;3.60;99.90
37754;DHT22;23596;52.520;13.464;2022-12-07T08:20:30;3.60;99.90
37754;DHT22;23596;52.520;13.464;2022-12-07T08:22:56;4.30;99.90
37754;DHT22;23596;52.520;13.464;2022-12-07T08:25:22;3.60;99.90
37754;DHT22;23596;52.520;13.464;2022-12-07T08:27:48;3.70;99.90
37754;DHT22;23596;52.520;13.464;2022-12-07T08:30:14;3.70;99.90
37754;DHT22;23596;52.520;13.464;2022-12-07T08:32:40;3.70;99.90
37754;DHT22;23596;52.520;13.464;2022-12-07T08:35:06;4.10;99.90
37754;DHT22;23596;52.520;13.464;2022-12-07T08:37:32;3.70;99.90
37754;DHT22;23596;52.520;13.464;2022-12-07T08:39:58;3.70;99.90
37754;DHT22;23596;52.520;13.464;2022-12-07T08:42:24;3.70;99.90
37754;DHT22;23596;52.520;13.464;2022-12-07T08:44:55;3.80;99.90
37754;DHT22;23596;52.520;13.464;2022-12-07T08:47:20;3.80;99.90
37754;DHT22;23596;52.520;13.464;2022-12-07T08:49:47;3.80;99.90
37754;DHT22;23596;52.520;13.464;2022-12-07T08:52:16;3.80;99.90
37754;DHT22;23596;52.520;13.464;2022-12-07T08:54:41;3.90;99.90
37754;DHT22;23596;52.520;13.464;2022-12-07T08:57:08;3.80;99.90
37754;DHT22;23596;52.520;13.464;2022-12-07T08:59:36;3.80;99.90
37754;DHT22;23596;52.520;13.464;2022-12-07T09:02:03;3.90;99.90
37754;DHT22;23596;52.520;13.464;2022-12-07T09:04:28;3.80;99.90
37754;DHT22;23596;52.520;13.464;2022-12-07T09:06:54;5.30;99.90
37754;DHT22;23596;52.520;13.464;2022-12-07T09:09:20;3.80;99.90
37754;DHT22;23596;52.520;13.464;2022-12-07T09:11:46;3.90;99.90
37754;DHT22;23596;52.520;13.464;2022-12-07T09:14:12;3.80;99.90
37754;DHT22;23596;52.520;13.464;2022-12-07T09:16:38;3.90;99.90
37754;DHT22;23596;52.520;13.464;2022-12-07T09:19:03;3.90;99.90
37754;DHT22;23596;52.520;13.464;2022-12-07T09:21:30;3.80;99.90
37754;DHT22;23596;52.520;13.464;2022-12-07T09:23:55;3.80;99.90
37754;DHT22;23596;52.520;13.464;2022-12-07T09:26:21;3.90;99.90
37754;DHT22;23596;52.520;13.464;2022-12-07T09:28:47;3.80;99.90
37754;DHT22;23596;52.520;13.464;2022-12-07T09:31:12;3.80;99.90
37754;DHT22;23596;52.520;13.464;2022-12-07T09:33:38;3.80;99.90
37754;DHT22;23596;52.520;13.464;2022-12-07T09:36:04;4.10;99.90
37754;DHT22;23596;52.520;13.464;2022-12-07T09:38:30;3.70;99.90
37754;DHT22;23596;52.520;13.464;2022-12-07T09:40:56;3.70;99.90
37754;DHT22;23596;52.520;13.464;2022-12-07T09:43:24;3.60;99.90
37754;DHT22;23596;52.520;13.464;2022-12-07T09:45:52;4.60;99.90
37754;DHT22;23596;52.520;13.464;2022-12-07T09:48:29;3.60;99.90
37754;DHT22;23596;52.520;13.464;2022-12-07T09:50:58;3.90;99.90
37754;DHT22;23596;52.520;13.464;2022-12-07T09:53:47;5.00;99.90
37754;DHT22;23596;52.520;13.464;2022-12-07T09:56:15;3.60;99.90
37754;DHT22;23596;52.520;13.464;2022-12-07T09:58:42;3.60;99.90
37754;DHT22;23596;52.520;13.464;2022-12-07T10:03:36;3.60;99.90
37754;DHT22;23596;52.520;13.464;2022-12-07T10:06:04;3.60;99.90
37754;DHT22;23596;52.520;13.464;2022-12-07T10:08:31;3.60;99.90
37754;DHT22;23596;52.520;13.464;2022-12-07T10:10:57;3.60;99.90
37754;DHT22;23596;52.520;13.464;2022-12-07T10:13:43;3.70;99.90
37754;DHT22;23596;52.520;13.464;2022-12-07T10:16:41;3.60;99.90
37754;DHT22;23596;52.520;13.464;2022-12-07T10:22:10;3.60;99.90
37754;DHT22;23596;52.520;13.464;2022-12-07T10:24:36;3.50;99.90
37754;DHT22;23596;52.520;13.464;2022-12-07T10:27:08;3.50;99.90
37754;DHT22;23596;52.520;13.464;2022-12-07T10:29:50;3.50;99.90
37754;DHT22;23596;52.520;13.464;2022-12-07T10:34:42;3.50;99.90
37754;DHT22;23596;52.520;13.464;2022-12-07T10:39:51;3.50;99.90
37754;DHT22;23596;52.520;13.464;2022-12-07T10:42:26;3.50;99.90
37754;DHT22;23596;52.520;13.464;2022-12-07T10:47:36;3.50;99.90
37754;DHT22;23596;52.520;13.464;2022-12-07T10:53:15;3.60;99.90
37754;DHT22;23596;52.520;13.464;2022-12-07T11:11:47;3.60;99.90
37754;DHT22;23596;52.520;13.464;2022-12-07T11:14:25;3.60;99.90
37754;DHT22;23596;52.520;13.464;2022-12-07T11:25:36;3.80;99.90
37754;DHT22;23596;52.520;13.464;2022-12-07T11:28:27;3.80;99.90
37754;DHT22;23596;52.520;13.464;2022-12-07T11:33:45;3.70;99.90
37754;DHT22;23596;52.520;13.464;2022-12-07T11:36:30;3.70;99.90
37754;DHT22;23596;52.520;13.464;2022-12-07T11:39:00;3.80;99.90
37754;DHT22;23596;52.520;13.464;2022-12-07T11:41:35;6.00;99.90
37754;DHT22;23596;52.520;13.464;2022-12-07T11:47:02;3.80;99.90
37754;DHT22;23596;52.520;13.464;2022-12-07T11:49:43;3.90;99.90
37754;DHT22;23596;52.520;13.464;2022-12-07T11:52:18;3.90;99.90
37754;DHT22;23596;52.520;13.464;2022-12-07T11:54:47;4.00;99.90
37754;DHT22;23596;52.520;13.464;2022-12-07T11:57:30;4.00;99.90
37754;DHT22;23596;52.520;13.464;2022-12-07T12:00:00;4.00;99.90
37754;DHT22;23596;52.520;13.464;2022-12-07T12:02:33;4.00;99.90
37754;DHT22;23596;52.520;13.464;2022-12-07T12:05:15;3.90;99.90
37754;DHT22;23596;52.520;13.464;2022-12-07T12:07:43;3.90;99.90
37754;DHT22;23596;52.520;13.464;2022-12-07T12:10:26;3.90;99.90
37754;DHT22;23596;52.520;13.464;2022-12-07T12:21:09;4.10;99.90
37754;DHT22;23596;52.520;13.464;2022-12-07T12:26:32;4.20;99.90
37754;DHT22;23596;52.520;13.464;2022-12-07T12:29:00;4.20;99.90
37754;DHT22;23596;52.520;13.464;2022-12-07T12:33:55;4.20;99.90
37754;DHT22;23596;52.520;13.464;2022-12-07T12:39:16;4.20;99.90
37754;DHT22;23596;52.520;13.464;2022-12-07T12:47:02;4.60;99.90
37754;DHT22;23596;52.520;13.464;2022-12-07T12:52:01;4.40;99.90
37754;DHT22;23596;52.520;13.464;2022-12-07T12:55:12;4.40;99.90
37754;DHT22;23596;52.520;13.464;2022-12-07T12:57:38;4.30;99.90
37754;DHT22;23596;52.520;13.464;2022-12-07T13:02:37;4.40;99.90
37754;DHT22;23596;52.520;13.464;2022-12-07T13:05:21;4.70;99.90
37754;DHT22;23596;52.520;13.464;2022-12-07T13:08:00;4.40;99.90
37754;DHT22;23596;52.520;13.464;2022-12-07T13:28:44;4.50;99.90
37754;DHT22;23596;52.520;13.464;2022-12-07T13:31:13;4.50;99.90
37754;DHT22;23596;52.520;13.464;2022-12-07T13:33:43;4.50;99.90
37754;DHT22;23596;52.520;13.464;2022-12-07T13:36:21;4.50;99.90
37754;DHT22;23596;52.520;13.464;2022-12-07T13:38:56;4.50;99.90
37754;DHT22;23596;52.520;13.464;2022-12-07T13:41:27;4.50;99.90
37754;DHT22;23596;52.520;13.464;2022-12-07T13:44:10;4.50;99.90
37754;DHT22;23596;52.520;13.464;2022-12-07T13:46:54;4.50;99.90
37754;DHT22;23596;52.520;13.464;2022-12-07T13:49:29;4.50;99.90
37754;DHT22;23596;52.520;13.464;2022-12-07T13:57:29;4.60;99.90
37754;DHT22;23596;52.520;13.464;2022-12-07T13:59:56;4.60;99.90
37754;DHT22;23596;52.520;13.464;2022-12-07T14:02:26;4.50;99.90
37754;DHT22;23596;52.520;13.464;2022-12-07T14:05:12;4.50;99.90
37754;DHT22;23596;52.520;13.464;2022-12-07T14:08:03;4.50;99.90
37754;DHT22;23596;52.520;13.464;2022-12-07T14:10:39;4.50;99.90
37754;DHT22;23596;52.520;13.464;2022-12-07T14:15:51;4.60;99.90
37754;DHT22;23596;52.520;13.464;2022-12-07T14:18:36;4.50;99.90
37754;DHT22;23596;52.520;13.464;2022-12-07T14:21:20;4.60;99.90
37754;DHT22;23596;52.520;13.464;2022-12-07T14:24:07;4.50;99.90
37754;DHT22;23596;52.520;13.464;2022-12-07T14:26:33;4.50;99.90
37754;DHT22;23596;52.520;13.464;2022-12-07T14:31:57;4.50;99.90
37754;DHT22;23596;52.520;13.464;2022-12-07T14:34:24;4.50;99.90
37754;DHT22;23596;52.520;13.464;2022-12-07T14:36:50;4.60;99.90
37754;DHT22;23596;52.520;13.464;2022-12-07T14:39:16;4.50;99.90
37754;DHT22;23596;52.520;13.464;2022-12-07T14:41:42;4.50;99.90
37754;DHT22;23596;52.520;13.464;2022-12-07T14:44:20;4.50;99.90
37754;DHT22;23596;52.520;13.464;2022-12-07T14:46:47;4.50;99.90
37754;DHT22;23596;52.520;13.464;2022-12-07T14:49:13;4.40;99.90
37754;DHT22;23596;52.520;13.464;2022-12-07T14:51:39;4.50;99.90
37754;DHT22;23596;52.520;13.464;2022-12-07T14:54:07;4.40;99.90
37754;DHT22;23596;52.520;13.464;2022-12-07T14:56:37;4.30;99.90
37754;DHT22;23596;52.520;13.464;2022-12-07T14:59:02;4.30;99.90
37754;DHT22;23596;52.520;13.464;2022-12-07T15:01:28;4.30;99.90
37754;DHT22;23596;52.520;13.464;2022-12-07T15:03:53;4.60;99.90
37754;DHT22;23596;52.520;13.464;2022-12-07T15:06:19;4.40;99.90
37754;DHT22;23596;52.520;13.464;2022-12-07T15:08:45;4.20;99.90
37754;DHT22;23596;52.520;13.464;2022-12-07T15:11:15;4.40;99.90
37754;DHT22;23596;52.520;13.464;2022-12-07T15:13:41;4.20;99.90
37754;DHT22;23596;52.520;13.464;2022-12-07T15:16:25;4.20;99.90
37754;DHT22;23596;52.520;13.464;2022-12-07T15:18:51;4.10;99.90
37754;DHT22;23596;52.520;13.464;2022-12-07T15:21:17;4.20;99.90
37754;DHT22;23596;52.520;13.464;2022-12-07T15:23:42;4.00;99.90
37754;DHT22;23596;52.520;13.464;2022-12-07T15:26:10;4.00;99.90
37754;DHT22;23596;52.520;13.464;2022-12-07T15:28:35;4.30;99.90
37754;DHT22;23596;52.520;13.464;2022-12-07T15:31:01;3.90;99.90
37754;DHT22;23596;52.520;13.464;2022-12-07T15:33:27;4.50;99.90
37754;DHT22;23596;52.520;13.464;2022-12-07T15:35:52;4.50;99.90
37754;DHT22;23596;52.520;13.464;2022-12-07T15:38:18;3.90;99.90
37754;DHT22;23596;52.520;13.464;2022-12-07T15:40:47;3.90;99.90
37754;DHT22;23596;52.520;13.464;2022-12-07T15:43:12;3.90;99.90
37754;DHT22;23596;52.520;13.464;2022-12-07T15:45:56;3.90;99.90
37754;DHT22;23596;52.520;13.464;2022-12-07T15:48:22;3.90;99.90
37754;DHT22;23596;52.520;13.464;2022-12-07T15:50:48;3.90;99.90
37754;DHT22;23596;52.520;13.464;2022-12-07T15:53:13;3.90;99.90
37754;DHT22;23596;52.520;13.464;2022-12-07T15:55:39;3.90;99.90
37754;DHT22;23596;52.520;13.464;2022-12-07T15:58:05;3.90;99.90
37754;DHT22;23596;52.520;13.464;2022-12-07T16:00:31;3.90;99.90
37754;DHT22;23596;52.520;13.464;2022-12-07T16:02:57;3.90;99.90
37754;DHT22;23596;52.520;13.464;2022-12-07T16:05:22;4.00;99.90
37754;DHT22;23596;52.520;13.464;2022-12-07T16:07:48;4.00;99.90
37754;DHT22;23596;52.520;13.464;2022-12-07T16:10:13;4.00;99.90
37754;DHT22;23596;52.520;13.464;2022-12-07T16:12:39;4.40;99.90
37754;DHT22;23596;52.520;13.464;2022-12-07T16:15:05;4.40;99.90
37754;DHT22;23596;52.520;13.464;2022-12-07T16:17:31;4.00;99.90
37754;DHT22;23596;52.520;13.464;2022-12-07T16:19:56;3.90;99.90
37754;DHT22;23596;52.520;13.464;2022-12-07T16:22:23;3.90;99.90
37754;DHT22;23596;52.520;13.464;2022-12-07T16:24:49;3.90;99.90
37754;DHT22;23596;52.520;13.464;2022-12-07T16:27:14;4.10;99.90
37754;DHT22;23596;52.520;13.464;2022-12-07T16:29:40;3.90;99.90
37754;DHT22;23596;52.520;13.464;2022-12-07T16:32:05;3.80;99.90
37754;DHT22;23596;52.520;13.464;2022-12-07T16:34:31;3.80;99.90
37754;DHT22;23596;52.520;13.464;2022-12-07T16:36:57;3.80;99.90
37754;DHT22;23596;52.520;13.464;2022-12-07T16:39:22;3.80;99.90
37754;DHT22;23596;52.520;13.464;2022-12-07T16:41:48;3.80;99.90
37754;DHT22;23596;52.520;13.464;2022-12-07T16:44:13;3.70;99.90
37754;DHT22;23596;52.520;13.464;2022-12-07T16:46:39;3.80;99.90
37754;DHT22;23596;52.520;13.464;2022-12-07T16:49:05;3.70;99.90
37754;DHT22;23596;52.520;13.464;2022-12-07T16:51:31;3.70;99.90
37754;DHT22;23596;52.520;13.464;2022-12-07T16:53:58;4.10;99.90
37754;DHT22;23596;52.520;13.464;2022-12-07T16:56:24;4.70;99.90
37754;DHT22;23596;52.520;13.464;2022-12-07T16:58:51;3.70;99.90
37754;DHT22;23596;52.520;13.464;2022-12-07T17:01:19;4.30;99.90
37754;DHT22;23596;52.520;13.464;2022-12-07T17:03:46;3.60;99.90
37754;DHT22;23596;52.520;13.464;2022-12-07T17:06:19;3.60;99.90
37754;DHT22;23596;52.520;13.464;2022-12-07T17:08:46;3.50;99.90
37754;DHT22;23596;52.520;13.464;2022-12-07T17:11:14;3.50;99.90
37754;DHT22;23596;52.520;13.464;2022-12-07T17:13:40;3.50;99.90
37754;DHT22;23596;52.520;13.464;2022-12-07T17:16:25;4.50;99.90
37754;DHT22;23596;52.520;13.464;2022-12-07T17:18:50;3.40;99.90
37754;DHT22;23596;52.520;13.464;2022-12-07T17:21:16;3.40;99.90
37754;DHT22;23596;52.520;13.464;2022-12-07T17:23:41;3.40;99.90
37754;DHT22;23596;52.520;13.464;2022-12-07T17:26:19;3.40;99.90
37754;DHT22;23596;52.520;13.464;2022-12-07T17:28:45;3.30;99.90
37754;DHT22;23596;52.520;13.464;2022-12-07T17:31:13;3.30;99.90
37754;DHT22;23596;52.520;13.464;2022-12-07T17:33:39;3.40;99.90
37754;DHT22;23596;52.520;13.464;2022-12-07T17:36:20;3.30;99.90
37754;DHT22;23596;52.520;13.464;2022-12-07T17:38:46;3.30;99.90
37754;DHT22;23596;52.520;13.464;2022-12-07T17:41:17;3.30;99.90
37754;DHT22;23596;52.520;13.464;2022-12-07T17:44:05;3.30;99.90
37754;DHT22;23596;52.520;13.464;2022-12-07T17:46:30;3.30;99.90